sensor_id;sensor_type;location;lat;lon;timestamp;temperature;humidity
11491;DHT22;5802;52.832;4.758;2022-08-19T00:01:18;24.70;58.00
11491;DHT22;5802;52.832;4.758;2022-08-19T00:03:45;24.70;58.00
11491;DHT22;5802;52.832;4.758;2022-08-19T00:06:12;24.70;57.90
11491;DHT22;5802;52.832;4.758;2022-08-19T00:08:38;24.70;57.90
11491;DHT22;5802;52.832;4.758;2022-08-19T00:11:05;24.70;57.90
11491;DHT22;5802;52.832;4.758;2022-08-19T00:13:34;24.70;57.90
11491;DHT22;5802;52.832;4.758;2022-08-19T00:16:01;24.70;57.90
11491;DHT22;5802;52.832;4.758;2022-08-19T00:18:28;24.60;57.90
11491;DHT22;5802;52.832;4.758;2022-08-19T00:20:54;24.70;57.90
11491;DHT22;5802;52.832;4.758;2022-08-19T00:23:21;24.70;57.90
11491;DHT22;5802;52.832;4.758;2022-08-19T00:25:48;24.70;57.90
11491;DHT22;5802;52.832;4.758;2022-08-19T00:28:14;24.70;57.90
11491;DHT22;5802;52.832;4.758;2022-08-19T00:30:43;24.70;57.90
11491;DHT22;5802;52.832;4.758;2022-08-19T00:33:09;24.70;58.50
11491;DHT22;5802;52.832;4.758;2022-08-19T00:35:36;24.60;57.90
11491;DHT22;5802;52.832;4.758;2022-08-19T00:38:04;24.60;57.90
11491;DHT22;5802;52.832;4.758;2022-08-19T00:40:31;24.60;57.80
11491;DHT22;5802;52.832;4.758;2022-08-19T00:42:58;24.60;57.80
11491;DHT22;5802;52.832;4.758;2022-08-19T00:45:27;24.60;57.90
11491;DHT22;5802;52.832;4.758;2022-08-19T00:48:03;24.60;57.90
11491;DHT22;5802;52.832;4.758;2022-08-19T00:50:30;24.60;57.90
11491;DHT22;5802;52.832;4.758;2022-08-19T00:52:59;24.60;57.90
11491;DHT22;5802;52.832;4.758;2022-08-19T00:55:26;24.60;57.90
11491;DHT22;5802;52.832;4.758;2022-08-19T00:57:59;24.60;57.90
11491;DHT22;5802;52.832;4.758;2022-08-19T01:00:29;24.60;57.90
11491;DHT22;5802;52.832;4.758;2022-08-19T01:02:56;24.60;57.90
11491;DHT22;5802;52.832;4.758;2022-08-19T01:05:26;24.60;57.90
11491;DHT22;5802;52.832;4.758;2022-08-19T01:07:54;24.60;58.10
11491;DHT22;5802;52.832;4.758;2022-08-19T01:10:25;24.60;57.90
11491;DHT22;5802;52.832;4.758;2022-08-19T01:12:54;24.60;57.90
11491;DHT22;5802;52.832;4.758;2022-08-19T01:15:24;24.50;57.80
11491;DHT22;5802;52.832;4.758;2022-08-19T01:17:52;24.50;57.80
11491;DHT22;5802;52.832;4.758;2022-08-19T01:20:22;24.50;57.80
11491;DHT22;5802;52.832;4.758;2022-08-19T01:22:53;24.50;57.80
11491;DHT22;5802;52.832;4.758;2022-08-19T01:25:22;24.50;57.90
11491;DHT22;5802;52.832;4.758;2022-08-19T01:27:50;24.50;57.90
11491;DHT22;5802;52.832;4.758;2022-08-19T01:30:20;24.50;57.80
11491;DHT22;5802;52.832;4.758;2022-08-19T01:32:48;24.50;57.80
11491;DHT22;5802;52.832;4.758;2022-08-19T01:35:15;24.50;57.90
11491;DHT22;5802;52.832;4.758;2022-08-19T01:37:51;24.50;57.80
11491;DHT22;5802;52.832;4.758;2022-08-19T01:40:19;24.50;57.90
11491;DHT22;5802;52.832;4.758;2022-08-19T01:42:46;24.50;57.90
11491;DHT22;5802;52.832;4.758;2022-08-19T01:45:15;24.50;57.90
11491;DHT22;5802;52.832;4.758;2022-08-19T01:47:41;24.50;57.90
11491;DHT22;5802;52.832;4.758;2022-08-19T01:50:10;24.50;57.90
11491;DHT22;5802;52.832;4.758;2022-08-19T01:52:38;24.50;57.90
11491;DHT22;5802;52.832;4.758;2022-08-19T01:55:10;24.50;57.90
11491;DHT22;5802;52.832;4.758;2022-08-19T01:57:37;24.50;57.90
11491;DHT22;5802;52.832;4.758;2022-08-19T02:00:09;24.50;57.90
11491;DHT22;5802;52.832;4.758;2022-08-19T02:02:36;24.50;57.90
11491;DHT22;5802;52.832;4.758;2022-08-19T02:05:04;24.50;57.90
11491;DHT22;5802;52.832;4.758;2022-08-19T02:07:32;24.50;57.90
11491;DHT22;5802;52.832;4.758;2022-08-19T02:10:01;24.40;57.80
11491;DHT22;5802;52.832;4.758;2022-08-19T02:12:30;24.50;57.80
11491;DHT22;5802;52.832;4.758;2022-08-19T02:14:57;24.40;57.80
11491;DHT22;5802;52.832;4.758;2022-08-19T02:17:24;24.40;57.80
11491;DHT22;5802;52.832;4.758;2022-08-19T02:19:51;24.40;57.80
11491;DHT22;5802;52.832;4.758;2022-08-19T02:22:18;24.40;57.80
11491;DHT22;5802;52.832;4.758;2022-08-19T02:24:45;24.40;57.80
11491;DHT22;5802;52.832;4.758;2022-08-19T02:27:13;24.40;57.80
11491;DHT22;5802;52.832;4.758;2022-08-19T02:29:41;24.40;57.80
11491;DHT22;5802;52.832;4.758;2022-08-19T02:32:08;24.40;57.80
11491;DHT22;5802;52.832;4.758;2022-08-19T02:34:35;24.40;57.80
11491;DHT22;5802;52.832;4.758;2022-08-19T02:37:02;24.40;57.80
11491;DHT22;5802;52.832;4.758;2022-08-19T02:39:28;24.40;57.80
11491;DHT22;5802;52.832;4.758;2022-08-19T02:41:54;24.40;57.80
11491;DHT22;5802;52.832;4.758;2022-08-19T02:44:21;24.40;57.80
11491;DHT22;5802;52.832;4.758;2022-08-19T02:46:50;24.40;57.80
11491;DHT22;5802;52.832;4.758;2022-08-19T02:49:17;24.40;57.90
11491;DHT22;5802;52.832;4.758;2022-08-19T02:51:45;24.40;57.90
11491;DHT22;5802;52.832;4.758;2022-08-19T02:54:14;24.40;57.90
11491;DHT22;5802;52.832;4.758;2022-08-19T02:56:42;24.40;57.90
11491;DHT22;5802;52.832;4.758;2022-08-19T02:59:10;24.40;57.90
11491;DHT22;5802;52.832;4.758;2022-08-19T03:01:39;24.40;57.90
11491;DHT22;5802;52.832;4.758;2022-08-19T03:04:09;24.40;58.00
11491;DHT22;5802;52.832;4.758;2022-08-19T03:06:37;24.40;57.90
11491;DHT22;5802;52.832;4.758;2022-08-19T03:09:04;24.40;57.90
11491;DHT22;5802;52.832;4.758;2022-08-19T03:11:32;24.40;57.90
11491;DHT22;5802;52.832;4.758;2022-08-19T03:14:00;24.40;57.90
11491;DHT22;5802;52.832;4.758;2022-08-19T03:16:30;24.30;57.90
11491;DHT22;5802;52.832;4.758;2022-08-19T03:18:57;24.30;57.90
11491;DHT22;5802;52.832;4.758;2022-08-19T03:21:31;24.30;58.50
11491;DHT22;5802;52.832;4.758;2022-08-19T03:24:03;24.30;57.90
11491;DHT22;5802;52.832;4.758;2022-08-19T03:26:30;24.30;58.00
11491;DHT22;5802;52.832;4.758;2022-08-19T03:28:57;24.30;57.90
11491;DHT22;5802;52.832;4.758;2022-08-19T03:31:26;24.30;57.90
11491;DHT22;5802;52.832;4.758;2022-08-19T03:33:52;24.30;57.90
11491;DHT22;5802;52.832;4.758;2022-08-19T03:36:22;24.30;57.90
11491;DHT22;5802;52.832;4.758;2022-08-19T03:38:54;24.30;57.90
11491;DHT22;5802;52.832;4.758;2022-08-19T03:41:22;24.30;57.90
11491;DHT22;5802;52.832;4.758;2022-08-19T03:43:49;24.30;57.90
11491;DHT22;5802;52.832;4.758;2022-08-19T03:46:19;24.30;57.90
11491;DHT22;5802;52.832;4.758;2022-08-19T03:48:47;24.30;57.90
11491;DHT22;5802;52.832;4.758;2022-08-19T03:51:19;24.30;57.90
11491;DHT22;5802;52.832;4.758;2022-08-19T03:53:47;24.30;57.90
11491;DHT22;5802;52.832;4.758;2022-08-19T03:56:16;24.30;57.90
11491;DHT22;5802;52.832;4.758;2022-08-19T03:58:43;24.30;57.90
11491;DHT22;5802;52.832;4.758;2022-08-19T04:01:12;24.30;57.90
11491;DHT22;5802;52.832;4.758;2022-08-19T04:03:40;24.30;57.90
11491;DHT22;5802;52.832;4.758;2022-08-19T04:06:11;24.30;57.90
11491;DHT22;5802;52.832;4.758;2022-08-19T04:08:39;24.30;58.00
11491;DHT22;5802;52.832;4.758;2022-08-19T04:11:14;24.20;57.90
11491;DHT22;5802;52.832;4.758;2022-08-19T04:13:43;24.20;58.00
11491;DHT22;5802;52.832;4.758;2022-08-19T04:16:10;24.30;57.90
11491;DHT22;5802;52.832;4.758;2022-08-19T04:18:38;24.20;57.90
11491;DHT22;5802;52.832;4.758;2022-08-19T04:21:07;24.20;57.90
11491;DHT22;5802;52.832;4.758;2022-08-19T04:23:35;24.20;57.90
11491;DHT22;5802;52.832;4.758;2022-08-19T04:26:02;24.20;57.90
11491;DHT22;5802;52.832;4.758;2022-08-19T04:28:29;24.20;58.00
11491;DHT22;5802;52.832;4.758;2022-08-19T04:30:57;24.20;57.90
11491;DHT22;5802;52.832;4.758;2022-08-19T04:33:25;24.20;58.00
11491;DHT22;5802;52.832;4.758;2022-08-19T04:35:53;24.20;58.00
11491;DHT22;5802;52.832;4.758;2022-08-19T04:38:21;24.20;58.00
11491;DHT22;5802;52.832;4.758;2022-08-19T04:40:50;24.20;58.00
11491;DHT22;5802;52.832;4.758;2022-08-19T04:43:37;24.20;58.00
11491;DHT22;5802;52.832;4.758;2022-08-19T04:46:07;24.20;58.00
11491;DHT22;5802;52.832;4.758;2022-08-19T04:48:33;24.20;58.00
11491;DHT22;5802;52.832;4.758;2022-08-19T04:51:00;24.20;58.00
11491;DHT22;5802;52.832;4.758;2022-08-19T04:53:32;24.20;58.10
11491;DHT22;5802;52.832;4.758;2022-08-19T04:56:05;24.20;58.00
11491;DHT22;5802;52.832;4.758;2022-08-19T04:58:34;24.20;58.10
11491;DHT22;5802;52.832;4.758;2022-08-19T05:01:01;24.20;58.10
11491;DHT22;5802;52.832;4.758;2022-08-19T05:03:29;24.20;58.10
11491;DHT22;5802;52.832;4.758;2022-08-19T05:06:04;24.20;58.00
11491;DHT22;5802;52.832;4.758;2022-08-19T05:08:34;24.20;58.10
11491;DHT22;5802;52.832;4.758;2022-08-19T05:11:06;24.20;58.00
11491;DHT22;5802;52.832;4.758;2022-08-19T05:13:34;24.20;58.00
11491;DHT22;5802;52.832;4.758;2022-08-19T05:16:00;24.20;58.00
11491;DHT22;5802;52.832;4.758;2022-08-19T05:18:28;24.20;58.10
11491;DHT22;5802;52.832;4.758;2022-08-19T05:21:15;24.20;58.00
11491;DHT22;5802;52.832;4.758;2022-08-19T05:24:00;24.20;58.00
11491;DHT22;5802;52.832;4.758;2022-08-19T05:26:27;24.20;58.00
11491;DHT22;5802;52.832;4.758;2022-08-19T05:28:54;24.20;58.00
11491;DHT22;5802;52.832;4.758;2022-08-19T05:31:21;24.20;58.00
11491;DHT22;5802;52.832;4.758;2022-08-19T05:33:50;24.20;58.10
11491;DHT22;5802;52.832;4.758;2022-08-19T05:36:16;24.20;58.00
11491;DHT22;5802;52.832;4.758;2022-08-19T05:38:44;24.20;58.00
11491;DHT22;5802;52.832;4.758;2022-08-19T05:41:12;24.30;58.10
11491;DHT22;5802;52.832;4.758;2022-08-19T05:43:41;24.20;58.10
11491;DHT22;5802;52.832;4.758;2022-08-19T05:46:16;24.30;58.10
11491;DHT22;5802;52.832;4.758;2022-08-19T05:48:43;24.30;58.10
11491;DHT22;5802;52.832;4.758;2022-08-19T05:51:12;24.30;58.10
11491;DHT22;5802;52.832;4.758;2022-08-19T05:53:39;24.30;58.10
11491;DHT22;5802;52.832;4.758;2022-08-19T05:56:06;24.30;58.10
11491;DHT22;5802;52.832;4.758;2022-08-19T05:58:33;24.30;58.10
11491;DHT22;5802;52.832;4.758;2022-08-19T06:00:59;24.30;58.10
11491;DHT22;5802;52.832;4.758;2022-08-19T06:03:29;24.30;58.10
11491;DHT22;5802;52.832;4.758;2022-08-19T06:05:56;24.30;58.00
11491;DHT22;5802;52.832;4.758;2022-08-19T06:08:26;24.40;58.00
11491;DHT22;5802;52.832;4.758;2022-08-19T06:10:53;24.40;58.10
11491;DHT22;5802;52.832;4.758;2022-08-19T06:13:19;24.40;58.00
11491;DHT22;5802;52.832;4.758;2022-08-19T06:15:47;24.40;58.00
11491;DHT22;5802;52.832;4.758;2022-08-19T06:18:14;24.40;58.00
11491;DHT22;5802;52.832;4.758;2022-08-19T06:20:41;24.40;57.90
11491;DHT22;5802;52.832;4.758;2022-08-19T06:23:08;24.40;57.90
11491;DHT22;5802;52.832;4.758;2022-08-19T06:25:36;24.40;57.80
11491;DHT22;5802;52.832;4.758;2022-08-19T06:28:05;24.50;57.80
11491;DHT22;5802;52.832;4.758;2022-08-19T06:30:32;24.50;57.80
11491;DHT22;5802;52.832;4.758;2022-08-19T06:32:58;24.50;57.80
11491;DHT22;5802;52.832;4.758;2022-08-19T06:35:28;24.50;57.70
11491;DHT22;5802;52.832;4.758;2022-08-19T06:37:55;24.50;57.70
11491;DHT22;5802;52.832;4.758;2022-08-19T06:40:22;24.50;57.70
11491;DHT22;5802;52.832;4.758;2022-08-19T06:42:50;24.50;57.60
11491;DHT22;5802;52.832;4.758;2022-08-19T06:45:18;24.60;57.70
11491;DHT22;5802;52.832;4.758;2022-08-19T06:47:45;24.60;57.60
11491;DHT22;5802;52.832;4.758;2022-08-19T06:50:13;24.60;57.60
11491;DHT22;5802;52.832;4.758;2022-08-19T06:52:40;24.60;57.60
11491;DHT22;5802;52.832;4.758;2022-08-19T06:55:08;24.60;57.60
11491;DHT22;5802;52.832;4.758;2022-08-19T06:57:35;24.70;57.60
11491;DHT22;5802;52.832;4.758;2022-08-19T07:00:04;24.70;57.60
11491;DHT22;5802;52.832;4.758;2022-08-19T07:02:36;24.70;57.50
11491;DHT22;5802;52.832;4.758;2022-08-19T07:05:04;24.70;57.50
11491;DHT22;5802;52.832;4.758;2022-08-19T07:07:31;24.80;57.50
11491;DHT22;5802;52.832;4.758;2022-08-19T07:09:58;24.80;57.50
11491;DHT22;5802;52.832;4.758;2022-08-19T07:12:26;24.80;57.50
11491;DHT22;5802;52.832;4.758;2022-08-19T07:14:53;24.80;57.50
11491;DHT22;5802;52.832;4.758;2022-08-19T07:17:21;24.90;57.50
11491;DHT22;5802;52.832;4.758;2022-08-19T07:19:47;24.90;57.50
11491;DHT22;5802;52.832;4.758;2022-08-19T07:22:15;24.90;57.60
11491;DHT22;5802;52.832;4.758;2022-08-19T07:24:43;25.00;57.60
11491;DHT22;5802;52.832;4.758;2022-08-19T07:27:10;25.00;57.60
11491;DHT22;5802;52.832;4.758;2022-08-19T07:29:36;25.10;57.70
11491;DHT22;5802;52.832;4.758;2022-08-19T07:32:04;25.10;57.70
11491;DHT22;5802;52.832;4.758;2022-08-19T07:34:33;25.10;57.80
11491;DHT22;5802;52.832;4.758;2022-08-19T07:37:03;25.20;57.90
11491;DHT22;5802;52.832;4.758;2022-08-19T07:39:32;25.20;57.90
11491;DHT22;5802;52.832;4.758;2022-08-19T07:42:01;25.20;57.90
11491;DHT22;5802;52.832;4.758;2022-08-19T07:44:31;25.20;58.00
11491;DHT22;5802;52.832;4.758;2022-08-19T07:46:59;25.30;58.10
11491;DHT22;5802;52.832;4.758;2022-08-19T07:49:27;25.30;58.10
11491;DHT22;5802;52.832;4.758;2022-08-19T07:51:58;25.30;58.10
11491;DHT22;5802;52.832;4.758;2022-08-19T07:54:30;25.40;58.10
11491;DHT22;5802;52.832;4.758;2022-08-19T07:56:57;25.40;58.20
11491;DHT22;5802;52.832;4.758;2022-08-19T07:59:24;25.50;58.20
11491;DHT22;5802;52.832;4.758;2022-08-19T08:01:51;25.50;58.20
11491;DHT22;5802;52.832;4.758;2022-08-19T08:04:18;25.60;58.30
11491;DHT22;5802;52.832;4.758;2022-08-19T08:07:06;25.60;58.30
11491;DHT22;5802;52.832;4.758;2022-08-19T08:09:51;25.70;58.30
11491;DHT22;5802;52.832;4.758;2022-08-19T08:12:20;25.70;58.30
11491;DHT22;5802;52.832;4.758;2022-08-19T08:14:49;25.80;58.40
11491;DHT22;5802;52.832;4.758;2022-08-19T08:17:18;25.80;58.40
11491;DHT22;5802;52.832;4.758;2022-08-19T08:19:46;25.80;58.30
11491;DHT22;5802;52.832;4.758;2022-08-19T08:22:19;25.90;58.40
11491;DHT22;5802;52.832;4.758;2022-08-19T08:25:02;25.90;58.40
11491;DHT22;5802;52.832;4.758;2022-08-19T08:27:29;26.00;58.40
11491;DHT22;5802;52.832;4.758;2022-08-19T08:29:56;26.00;58.20
11491;DHT22;5802;52.832;4.758;2022-08-19T08:32:23;26.10;58.30
11491;DHT22;5802;52.832;4.758;2022-08-19T08:34:50;26.10;58.20
11491;DHT22;5802;52.832;4.758;2022-08-19T08:37:18;26.10;58.30
11491;DHT22;5802;52.832;4.758;2022-08-19T08:39:44;26.10;58.30
11491;DHT22;5802;52.832;4.758;2022-08-19T08:42:18;26.10;58.30
11491;DHT22;5802;52.832;4.758;2022-08-19T08:44:51;26.20;58.40
11491;DHT22;5802;52.832;4.758;2022-08-19T08:47:21;26.20;58.20
11491;DHT22;5802;52.832;4.758;2022-08-19T08:49:52;26.30;58.30
11491;DHT22;5802;52.832;4.758;2022-08-19T08:52:24;26.40;58.20
11491;DHT22;5802;52.832;4.758;2022-08-19T08:54:54;26.40;58.10
11491;DHT22;5802;52.832;4.758;2022-08-19T08:57:26;26.50;58.10
11491;DHT22;5802;52.832;4.758;2022-08-19T08:59:57;26.50;58.00
11491;DHT22;5802;52.832;4.758;2022-08-19T09:02:24;26.60;58.00
11491;DHT22;5802;52.832;4.758;2022-08-19T09:04:51;26.60;57.90
11491;DHT22;5802;52.832;4.758;2022-08-19T09:07:32;26.70;57.90
11491;DHT22;5802;52.832;4.758;2022-08-19T09:10:06;26.70;57.90
11491;DHT22;5802;52.832;4.758;2022-08-19T09:12:44;26.80;57.90
11491;DHT22;5802;52.832;4.758;2022-08-19T09:15:16;26.80;57.90
11491;DHT22;5802;52.832;4.758;2022-08-19T09:17:44;26.80;57.80
11491;DHT22;5802;52.832;4.758;2022-08-19T09:20:18;26.80;57.80
11491;DHT22;5802;52.832;4.758;2022-08-19T09:22:46;26.80;57.70
11491;DHT22;5802;52.832;4.758;2022-08-19T09:25:16;26.80;57.70
11491;DHT22;5802;52.832;4.758;2022-08-19T09:27:44;26.90;57.80
11491;DHT22;5802;52.832;4.758;2022-08-19T09:30:14;26.90;57.80
11491;DHT22;5802;52.832;4.758;2022-08-19T09:32:41;26.90;57.70
11491;DHT22;5802;52.832;4.758;2022-08-19T09:35:09;26.90;57.70
11491;DHT22;5802;52.832;4.758;2022-08-19T09:37:36;26.90;57.70
11491;DHT22;5802;52.832;4.758;2022-08-19T09:40:05;26.90;57.70
11491;DHT22;5802;52.832;4.758;2022-08-19T09:42:32;26.90;57.70
11491;DHT22;5802;52.832;4.758;2022-08-19T09:45:00;26.90;57.70
11491;DHT22;5802;52.832;4.758;2022-08-19T09:47:26;26.90;57.70
11491;DHT22;5802;52.832;4.758;2022-08-19T09:49:53;26.90;57.80
11491;DHT22;5802;52.832;4.758;2022-08-19T09:52:20;26.80;57.70
11491;DHT22;5802;52.832;4.758;2022-08-19T09:54:51;26.80;57.80
11491;DHT22;5802;52.832;4.758;2022-08-19T09:57:19;26.80;57.80
11491;DHT22;5802;52.832;4.758;2022-08-19T09:59:46;26.80;57.90
11491;DHT22;5802;52.832;4.758;2022-08-19T10:02:13;26.80;58.00
11491;DHT22;5802;52.832;4.758;2022-08-19T10:04:40;26.80;58.00
11491;DHT22;5802;52.832;4.758;2022-08-19T10:07:24;26.80;58.10
11491;DHT22;5802;52.832;4.758;2022-08-19T10:09:51;26.80;58.20
11491;DHT22;5802;52.832;4.758;2022-08-19T10:12:17;26.90;58.20
11491;DHT22;5802;52.832;4.758;2022-08-19T10:14:45;26.90;58.20
11491;DHT22;5802;52.832;4.758;2022-08-19T10:17:12;26.90;58.00
11491;DHT22;5802;52.832;4.758;2022-08-19T10:19:39;26.90;57.90
11491;DHT22;5802;52.832;4.758;2022-08-19T10:22:06;26.90;57.90
11491;DHT22;5802;52.832;4.758;2022-08-19T10:24:34;26.90;57.90
11491;DHT22;5802;52.832;4.758;2022-08-19T10:27:01;26.90;57.90
11491;DHT22;5802;52.832;4.758;2022-08-19T10:29:29;26.90;57.90
11491;DHT22;5802;52.832;4.758;2022-08-19T10:31:58;26.90;58.00
11491;DHT22;5802;52.832;4.758;2022-08-19T10:34:25;26.90;57.90
11491;DHT22;5802;52.832;4.758;2022-08-19T10:36:52;27.00;58.10
11491;DHT22;5802;52.832;4.758;2022-08-19T10:39:19;27.00;58.10
11491;DHT22;5802;52.832;4.758;2022-08-19T10:41:46;27.00;58.10
11491;DHT22;5802;52.832;4.758;2022-08-19T10:44:13;27.00;58.20
11491;DHT22;5802;52.832;4.758;2022-08-19T10:46:43;27.00;58.30
11491;DHT22;5802;52.832;4.758;2022-08-19T10:49:13;27.00;58.20
11491;DHT22;5802;52.832;4.758;2022-08-19T10:51:41;27.00;58.20
11491;DHT22;5802;52.832;4.758;2022-08-19T10:54:26;27.00;58.20
11491;DHT22;5802;52.832;4.758;2022-08-19T10:57:13;27.00;58.30
11491;DHT22;5802;52.832;4.758;2022-08-19T10:59:39;27.00;58.40
11491;DHT22;5802;52.832;4.758;2022-08-19T11:02:08;27.00;58.30
11491;DHT22;5802;52.832;4.758;2022-08-19T11:04:37;27.00;58.20
11491;DHT22;5802;52.832;4.758;2022-08-19T11:07:05;27.00;58.20
11491;DHT22;5802;52.832;4.758;2022-08-19T11:09:38;27.00;58.20
11491;DHT22;5802;52.832;4.758;2022-08-19T11:12:06;27.00;58.20
11491;DHT22;5802;52.832;4.758;2022-08-19T11:14:33;27.00;58.20
11491;DHT22;5802;52.832;4.758;2022-08-19T11:17:00;27.00;58.30
11491;DHT22;5802;52.832;4.758;2022-08-19T11:19:27;27.00;58.40
11491;DHT22;5802;52.832;4.758;2022-08-19T11:21:55;27.00;58.20
11491;DHT22;5802;52.832;4.758;2022-08-19T11:24:23;27.00;58.00
11491;DHT22;5802;52.832;4.758;2022-08-19T11:26:53;27.10;57.90
11491;DHT22;5802;52.832;4.758;2022-08-19T11:29:23;27.10;57.90
11491;DHT22;5802;52.832;4.758;2022-08-19T11:31:51;27.20;57.80
11491;DHT22;5802;52.832;4.758;2022-08-19T11:34:21;27.20;57.80
11491;DHT22;5802;52.832;4.758;2022-08-19T11:36:49;27.20;57.80
11491;DHT22;5802;52.832;4.758;2022-08-19T11:39:20;27.20;57.70
11491;DHT22;5802;52.832;4.758;2022-08-19T11:41:47;27.20;57.70
11491;DHT22;5802;52.832;4.758;2022-08-19T11:44:15;27.20;57.70
11491;DHT22;5802;52.832;4.758;2022-08-19T11:46:43;27.20;57.70
11491;DHT22;5802;52.832;4.758;2022-08-19T11:49:13;27.20;57.70
11491;DHT22;5802;52.832;4.758;2022-08-19T11:51:40;27.30;57.80
11491;DHT22;5802;52.832;4.758;2022-08-19T11:54:09;27.20;57.70
11491;DHT22;5802;52.832;4.758;2022-08-19T11:56:38;27.30;57.70
11491;DHT22;5802;52.832;4.758;2022-08-19T11:59:05;27.20;57.60
11491;DHT22;5802;52.832;4.758;2022-08-19T12:01:33;27.30;57.70
11491;DHT22;5802;52.832;4.758;2022-08-19T12:04:00;27.30;57.60
11491;DHT22;5802;52.832;4.758;2022-08-19T12:06:31;27.30;57.60
11491;DHT22;5802;52.832;4.758;2022-08-19T12:09:02;27.30;57.60
11491;DHT22;5802;52.832;4.758;2022-08-19T12:11:29;27.30;57.60
11491;DHT22;5802;52.832;4.758;2022-08-19T12:13:57;27.30;57.50
11491;DHT22;5802;52.832;4.758;2022-08-19T12:16:26;27.30;57.50
11491;DHT22;5802;52.832;4.758;2022-08-19T12:18:54;27.30;57.40
11491;DHT22;5802;52.832;4.758;2022-08-19T12:21:26;27.30;57.40
11491;DHT22;5802;52.832;4.758;2022-08-19T12:23:55;27.30;57.50
11491;DHT22;5802;52.832;4.758;2022-08-19T12:26:23;27.30;57.50
11491;DHT22;5802;52.832;4.758;2022-08-19T12:28:50;27.30;57.50
11491;DHT22;5802;52.832;4.758;2022-08-19T12:31:18;27.30;57.40
11491;DHT22;5802;52.832;4.758;2022-08-19T12:33:46;27.30;57.50
11491;DHT22;5802;52.832;4.758;2022-08-19T12:36:14;27.30;57.50
11491;DHT22;5802;52.832;4.758;2022-08-19T12:38:42;27.30;57.50
11491;DHT22;5802;52.832;4.758;2022-08-19T12:41:11;27.30;57.50
11491;DHT22;5802;52.832;4.758;2022-08-19T12:43:38;27.30;57.30
11491;DHT22;5802;52.832;4.758;2022-08-19T12:46:06;27.30;57.30
11491;DHT22;5802;52.832;4.758;2022-08-19T12:48:34;27.30;57.30
11491;DHT22;5802;52.832;4.758;2022-08-19T12:51:06;27.30;57.40
11491;DHT22;5802;52.832;4.758;2022-08-19T12:53:33;27.30;57.30
11491;DHT22;5802;52.832;4.758;2022-08-19T12:56:01;27.30;57.30
11491;DHT22;5802;52.832;4.758;2022-08-19T12:58:29;27.30;57.30
11491;DHT22;5802;52.832;4.758;2022-08-19T13:00:56;27.30;57.30
11491;DHT22;5802;52.832;4.758;2022-08-19T13:03:22;27.40;57.30
11491;DHT22;5802;52.832;4.758;2022-08-19T13:05:55;27.40;57.30
11491;DHT22;5802;52.832;4.758;2022-08-19T13:08:22;27.40;57.30
11491;DHT22;5802;52.832;4.758;2022-08-19T13:10:49;27.40;57.20
11491;DHT22;5802;52.832;4.758;2022-08-19T13:13:16;27.40;57.10
11491;DHT22;5802;52.832;4.758;2022-08-19T13:15:43;27.40;57.10
11491;DHT22;5802;52.832;4.758;2022-08-19T13:18:11;27.40;57.00
11491;DHT22;5802;52.832;4.758;2022-08-19T13:20:39;27.40;57.00
11491;DHT22;5802;52.832;4.758;2022-08-19T13:23:08;27.40;57.00
11491;DHT22;5802;52.832;4.758;2022-08-19T13:25:35;27.50;57.00
11491;DHT22;5802;52.832;4.758;2022-08-19T13:28:03;27.50;57.00
11491;DHT22;5802;52.832;4.758;2022-08-19T13:30:31;27.50;56.90
11491;DHT22;5802;52.832;4.758;2022-08-19T13:33:16;27.50;56.90
11491;DHT22;5802;52.832;4.758;2022-08-19T13:35:46;27.50;56.90
11491;DHT22;5802;52.832;4.758;2022-08-19T13:38:15;27.50;56.90
11491;DHT22;5802;52.832;4.758;2022-08-19T13:40:42;27.50;56.90
11491;DHT22;5802;52.832;4.758;2022-08-19T13:43:09;27.50;56.90
11491;DHT22;5802;52.832;4.758;2022-08-19T13:45:36;27.50;56.80
11491;DHT22;5802;52.832;4.758;2022-08-19T13:48:05;27.50;56.80
11491;DHT22;5802;52.832;4.758;2022-08-19T13:50:38;27.50;56.80
11491;DHT22;5802;52.832;4.758;2022-08-19T13:53:05;27.50;56.80
11491;DHT22;5802;52.832;4.758;2022-08-19T13:55:34;27.50;56.80
11491;DHT22;5802;52.832;4.758;2022-08-19T13:58:03;27.50;56.70
11491;DHT22;5802;52.832;4.758;2022-08-19T14:00:33;27.50;56.70
11491;DHT22;5802;52.832;4.758;2022-08-19T14:03:01;27.60;56.80
11491;DHT22;5802;52.832;4.758;2022-08-19T14:05:29;27.60;56.70
11491;DHT22;5802;52.832;4.758;2022-08-19T14:07:56;27.60;56.70
11491;DHT22;5802;52.832;4.758;2022-08-19T14:10:24;27.60;56.70
11491;DHT22;5802;52.832;4.758;2022-08-19T14:12:54;27.60;56.70
11491;DHT22;5802;52.832;4.758;2022-08-19T14:15:23;27.60;56.70
11491;DHT22;5802;52.832;4.758;2022-08-19T14:17:51;27.60;56.70
11491;DHT22;5802;52.832;4.758;2022-08-19T14:20:19;27.60;56.70
11491;DHT22;5802;52.832;4.758;2022-08-19T14:22:47;27.60;56.90
11491;DHT22;5802;52.832;4.758;2022-08-19T14:25:18;27.60;56.90
11491;DHT22;5802;52.832;4.758;2022-08-19T14:27:45;27.60;56.80
11491;DHT22;5802;52.832;4.758;2022-08-19T14:30:16;27.60;56.90
11491;DHT22;5802;52.832;4.758;2022-08-19T14:32:43;27.60;57.00
11491;DHT22;5802;52.832;4.758;2022-08-19T14:35:12;27.60;56.90
11491;DHT22;5802;52.832;4.758;2022-08-19T14:37:40;27.70;56.90
11491;DHT22;5802;52.832;4.758;2022-08-19T14:40:08;27.70;56.80
11491;DHT22;5802;52.832;4.758;2022-08-19T14:42:35;27.70;56.80
11491;DHT22;5802;52.832;4.758;2022-08-19T14:45:03;27.70;56.70
11491;DHT22;5802;52.832;4.758;2022-08-19T14:47:32;27.70;56.80
11491;DHT22;5802;52.832;4.758;2022-08-19T14:49:59;27.70;56.80
11491;DHT22;5802;52.832;4.758;2022-08-19T14:52:26;27.70;56.90
11491;DHT22;5802;52.832;4.758;2022-08-19T14:54:53;27.70;56.90
11491;DHT22;5802;52.832;4.758;2022-08-19T14:57:20;27.70;56.90
11491;DHT22;5802;52.832;4.758;2022-08-19T14:59:46;27.70;57.00
11491;DHT22;5802;52.832;4.758;2022-08-19T15:02:13;27.70;57.00
11491;DHT22;5802;52.832;4.758;2022-08-19T15:04:41;27.70;57.00
11491;DHT22;5802;52.832;4.758;2022-08-19T15:07:08;27.70;57.00
11491;DHT22;5802;52.832;4.758;2022-08-19T15:09:35;27.70;57.00
11491;DHT22;5802;52.832;4.758;2022-08-19T15:12:02;27.70;57.00
11491;DHT22;5802;52.832;4.758;2022-08-19T15:14:30;27.70;57.00
11491;DHT22;5802;52.832;4.758;2022-08-19T15:17:00;27.60;57.00
11491;DHT22;5802;52.832;4.758;2022-08-19T15:19:27;27.60;57.20
11491;DHT22;5802;52.832;4.758;2022-08-19T15:21:55;27.60;57.30
11491;DHT22;5802;52.832;4.758;2022-08-19T15:24:22;27.60;57.40
11491;DHT22;5802;52.832;4.758;2022-08-19T15:26:51;27.50;57.40
11491;DHT22;5802;52.832;4.758;2022-08-19T15:29:17;27.50;57.50
11491;DHT22;5802;52.832;4.758;2022-08-19T15:31:44;27.50;57.60
11491;DHT22;5802;52.832;4.758;2022-08-19T15:34:11;27.40;57.70
11491;DHT22;5802;52.832;4.758;2022-08-19T15:36:38;27.40;57.70
11491;DHT22;5802;52.832;4.758;2022-08-19T15:39:06;27.40;57.80
11491;DHT22;5802;52.832;4.758;2022-08-19T15:41:34;27.30;57.80
11491;DHT22;5802;52.832;4.758;2022-08-19T15:44:05;27.30;57.90
11491;DHT22;5802;52.832;4.758;2022-08-19T15:46:36;27.30;57.90
11491;DHT22;5802;52.832;4.758;2022-08-19T15:49:04;27.30;58.00
11491;DHT22;5802;52.832;4.758;2022-08-19T15:51:33;27.30;58.00
11491;DHT22;5802;52.832;4.758;2022-08-19T15:54:01;27.20;58.00